createdAt,value
2022-08-26T00:01:24.251Z,25.30
2022-08-26T00:03:56.506Z,25.30
2022-08-26T00:06:23.113Z,25.20
2022-08-26T00:08:49.622Z,25.20
2022-08-26T00:11:26.687Z,25.20
2022-08-26T00:13:55.517Z,25.30
2022-08-26T00:16:24.498Z,25.30
2022-08-26T00:18:51.879Z,25.10
2022-08-26T00:21:18.823Z,25.00
2022-08-26T00:23:45.774Z,25.20
2022-08-26T00:26:13.451Z,25.30
2022-08-26T00:28:40.403Z,25.20
2022-08-26T00:31:07.087Z,24.90
2022-08-26T00:33:33.764Z,25.10
2022-08-26T00:36:01.278Z,25.20
2022-08-26T00:38:27.898Z,25.20
2022-08-26T00:40:57.478Z,25.10
2022-08-26T00:43:25.753Z,25.00
2022-08-26T00:46:11.091Z,24.70
2022-08-26T00:48:38.811Z,24.90
2022-08-26T00:51:14.961Z,24.50
2022-08-26T00:53:47.713Z,24.60
2022-08-26T00:56:27.089Z,24.80
2022-08-26T00:58:56.758Z,25.00
2022-08-26T01:01:23.399Z,25.10
2022-08-26T01:03:49.950Z,25.00
2022-08-26T01:06:16.653Z,25.10
2022-08-26T01:08:43.716Z,25.00
2022-08-26T01:11:11.800Z,24.90
2022-08-26T01:13:38.945Z,25.00
2022-08-26T01:16:08.331Z,24.90
2022-08-26T01:18:34.902Z,24.90
2022-08-26T01:21:18.916Z,24.80
2022-08-26T01:23:48.445Z,24.90
2022-08-26T01:26:30.649Z,25.00
2022-08-26T01:28:58.814Z,25.00
2022-08-26T01:31:27.340Z,25.00
2022-08-26T01:34:05.199Z,24.80
2022-08-26T01:36:31.821Z,24.80
2022-08-26T01:38:58.495Z,24.90
2022-08-26T01:41:27.068Z,24.90
2022-08-26T01:43:56.345Z,24.90
2022-08-26T01:46:26.337Z,24.90
2022-08-26T01:48:55.081Z,24.80
2022-08-26T01:51:23.383Z,24.70
2022-08-26T01:53:50.079Z,24.70
2022-08-26T01:56:16.618Z,24.50
2022-08-26T01:58:45.807Z,24.50
2022-08-26T02:01:12.735Z,24.50
2022-08-26T02:04:13.152Z,24.60
2022-08-26T02:06:39.929Z,24.80
2022-08-26T02:09:07.965Z,24.70
2022-08-26T02:11:36.841Z,24.60
2022-08-26T02:14:10.685Z,24.50
2022-08-26T02:16:42.453Z,24.60
2022-08-26T02:19:16.972Z,24.40
2022-08-26T02:21:45.934Z,24.50
2022-08-26T02:24:20.969Z,24.40
2022-08-26T02:26:48.614Z,24.40
2022-08-26T02:29:34.844Z,24.50
2022-08-26T02:32:01.742Z,24.70
2022-08-26T02:34:31.946Z,24.30
2022-08-26T02:37:00.631Z,24.40
2022-08-26T02:39:29.545Z,24.40
2022-08-26T02:41:56.534Z,24.40
2022-08-26T02:44:23.128Z,24.50
2022-08-26T02:46:49.708Z,24.30
2022-08-26T02:49:17.037Z,24.40
2022-08-26T02:51:43.831Z,24.60
2022-08-26T02:54:10.562Z,24.20
2022-08-26T02:56:37.363Z,24.00
2022-08-26T02:59:04.135Z,24.30
2022-08-26T03:01:33.695Z,24.20
2022-08-26T03:04:03.003Z,24.10
2022-08-26T03:06:30.147Z,24.40
2022-08-26T03:08:56.846Z,24.50
2022-08-26T03:11:27.535Z,24.40
2022-08-26T03:13:56.402Z,24.40
2022-08-26T03:16:23.047Z,24.40
2022-08-26T03:18:52.253Z,24.40
2022-08-26T03:21:19.769Z,24.30
2022-08-26T03:23:46.550Z,24.20
2022-08-26T03:26:14.529Z,24.10
2022-08-26T03:29:01.239Z,24.20
2022-08-26T03:31:29.496Z,24.10
2022-08-26T03:33:59.529Z,24.10
2022-08-26T03:36:26.829Z,24.10
2022-08-26T03:38:53.662Z,24.10
2022-08-26T03:41:21.299Z,24.30
2022-08-26T03:43:50.662Z,23.90
2022-08-26T03:46:18.435Z,23.60
2022-08-26T03:48:45.720Z,23.80
2022-08-26T03:51:19.033Z,23.90
2022-08-26T03:53:46.402Z,24.00
2022-08-26T03:56:12.911Z,23.70
2022-08-26T03:58:39.655Z,23.50
2022-08-26T04:01:10.824Z,23.60
2022-08-26T04:03:56.369Z,23.70
2022-08-26T04:06:29.217Z,23.80
2022-08-26T04:08:56.840Z,24.00
2022-08-26T04:11:34.053Z,24.10
2022-08-26T04:14:05.000Z,23.90
2022-08-26T04:16:31.835Z,24.00
2022-08-26T04:18:58.900Z,23.90
2022-08-26T04:21:26.516Z,24.10
2022-08-26T04:23:53.772Z,24.00
2022-08-26T04:26:21.867Z,24.00
2022-08-26T04:28:49.607Z,24.10
2022-08-26T04:31:17.421Z,24.00
2022-08-26T04:33:45.422Z,24.00
2022-08-26T04:36:13.089Z,23.60
2022-08-26T04:38:39.624Z,23.90
2022-08-26T04:41:15.208Z,24.00
2022-08-26T04:43:44.795Z,23.90
2022-08-26T04:46:13.722Z,23.70
2022-08-26T04:48:41.319Z,23.80
2022-08-26T04:51:09.391Z,23.90
2022-08-26T04:53:36.556Z,23.90
2022-08-26T04:56:03.953Z,24.00
2022-08-26T04:58:31.570Z,23.90
2022-08-26T05:00:58.418Z,23.80
2022-08-26T05:03:27.056Z,23.90
2022-08-26T05:05:54.348Z,23.90
2022-08-26T05:08:22.348Z,24.00
2022-08-26T05:10:51.307Z,23.90
2022-08-26T05:13:20.589Z,23.80
2022-08-26T05:15:48.005Z,24.10
2022-08-26T05:18:17.127Z,24.10
2022-08-26T05:20:49.364Z,24.10
2022-08-26T05:23:17.313Z,24.00
2022-08-26T05:25:47.027Z,24.00
2022-08-26T05:28:15.268Z,23.70
2022-08-26T05:30:42.282Z,23.80
2022-08-26T05:33:11.960Z,23.90
2022-08-26T05:35:39.036Z,24.30
2022-08-26T05:38:12.495Z,24.40
2022-08-26T05:40:42.789Z,24.40
2022-08-26T05:43:13.291Z,24.30
2022-08-26T05:45:45.339Z,24.50
2022-08-26T05:48:14.625Z,24.60
2022-08-26T05:50:49.613Z,24.60
2022-08-26T05:53:20.634Z,24.70
2022-08-26T05:55:50.679Z,24.70
2022-08-26T05:58:20.669Z,24.90
2022-08-26T06:00:58.030Z,25.00
2022-08-26T06:03:24.800Z,24.90
2022-08-26T06:05:51.319Z,25.10
2022-08-26T06:08:21.047Z,24.90
2022-08-26T06:10:52.758Z,24.80
2022-08-26T06:13:21.481Z,25.10
2022-08-26T06:15:48.742Z,25.30
2022-08-26T06:18:17.522Z,25.40
2022-08-26T06:20:57.758Z,25.60
2022-08-26T06:23:45.282Z,25.60
2022-08-26T06:26:13.126Z,25.50
2022-08-26T06:28:39.721Z,25.60
2022-08-26T06:31:10.473Z,25.50
2022-08-26T06:33:37.600Z,25.60
2022-08-26T06:36:04.676Z,25.80
2022-08-26T06:38:31.479Z,26.20
2022-08-26T06:40:59.841Z,26.10
2022-08-26T06:43:28.033Z,26.20
2022-08-26T06:46:05.920Z,26.50
2022-08-26T06:48:34.489Z,26.60
2022-08-26T06:51:18.938Z,26.50
2022-08-26T06:53:47.171Z,26.70
2022-08-26T06:56:17.012Z,26.70
2022-08-26T06:58:43.509Z,27.00
2022-08-26T07:01:16.071Z,27.10
2022-08-26T07:03:46.644Z,26.90
2022-08-26T07:06:13.573Z,27.00
2022-08-26T07:08:40.304Z,27.20
2022-08-26T07:11:09.063Z,27.20
2022-08-26T07:13:39.037Z,27.30
2022-08-26T07:16:08.204Z,27.40
2022-08-26T07:18:36.829Z,27.50
2022-08-26T07:21:08.559Z,27.70
2022-08-26T07:23:35.556Z,27.60
2022-08-26T07:26:06.846Z,28.00
2022-08-26T07:28:34.738Z,28.20
2022-08-26T07:31:09.583Z,28.20
2022-08-26T07:33:38.613Z,28.20
2022-08-26T07:36:07.438Z,28.40
2022-08-26T07:38:35.374Z,28.60
2022-08-26T07:41:02.505Z,28.60
2022-08-26T07:43:30.176Z,29.00
2022-08-26T07:45:57.085Z,29.10
2022-08-26T07:48:27.166Z,28.40
2022-08-26T07:50:53.813Z,28.50
2022-08-26T07:53:21.384Z,28.60
2022-08-26T07:55:49.245Z,28.80
2022-08-26T07:58:17.105Z,28.90
2022-08-26T08:00:44.080Z,29.00
2022-08-26T08:03:11.536Z,29.50
2022-08-26T08:05:38.538Z,29.80
2022-08-26T08:08:27.566Z,30.00
2022-08-26T08:10:56.651Z,29.90
2022-08-26T08:13:24.239Z,29.80
2022-08-26T08:15:51.033Z,30.20
2022-08-26T08:18:18.179Z,30.50
2022-08-26T08:21:04.840Z,30.40
2022-08-26T08:23:34.200Z,30.60
2022-08-26T08:26:07.079Z,30.70
2022-08-26T08:28:35.522Z,30.90
2022-08-26T08:31:02.393Z,30.90
2022-08-26T08:33:32.614Z,30.80
2022-08-26T08:36:00.347Z,30.20
2022-08-26T08:38:27.582Z,30.50
2022-08-26T08:40:54.180Z,30.50
2022-08-26T08:43:32.222Z,30.30
2022-08-26T08:46:09.310Z,30.10
2022-08-26T08:48:40.045Z,30.30
2022-08-26T08:51:22.875Z,30.60
2022-08-26T08:53:51.301Z,30.90
2022-08-26T08:56:30.354Z,30.80
2022-08-26T08:59:15.058Z,31.00
2022-08-26T09:02:04.732Z,30.80
2022-08-26T09:04:43.791Z,30.60
2022-08-26T09:07:13.879Z,30.80
2022-08-26T09:09:47.749Z,31.40
2022-08-26T09:12:21.429Z,31.60
2022-08-26T09:15:11.498Z,31.50
2022-08-26T09:17:47.897Z,31.40
2022-08-26T09:20:20.573Z,31.50
2022-08-26T09:22:47.378Z,31.50
2022-08-26T09:25:15.079Z,31.90
2022-08-26T09:27:52.612Z,32.20
2022-08-26T09:30:30.420Z,32.40
2022-08-26T09:33:02.848Z,32.80
2022-08-26T09:35:38.954Z,32.80
2022-08-26T09:38:27.909Z,32.70
2022-08-26T09:41:06.443Z,32.40
2022-08-26T09:43:35.374Z,32.30
2022-08-26T09:46:15.048Z,32.10
2022-08-26T09:48:42.955Z,32.50
2022-08-26T09:51:24.715Z,32.40
2022-08-26T09:53:54.067Z,32.60
2022-08-26T09:56:23.746Z,32.30
2022-08-26T09:58:50.591Z,32.10
2022-08-26T10:01:23.402Z,32.40
2022-08-26T10:03:51.263Z,32.50
2022-08-26T10:06:17.817Z,32.30
2022-08-26T10:08:51.412Z,32.70
2022-08-26T10:11:24.212Z,32.90
2022-08-26T10:13:56.889Z,33.20
2022-08-26T10:16:50.798Z,33.70
2022-08-26T10:19:20.038Z,33.60
2022-08-26T10:22:04.150Z,33.90
2022-08-26T10:24:40.251Z,34.30
2022-08-26T10:27:11.834Z,34.70
2022-08-26T10:29:43.272Z,34.00
2022-08-26T10:32:14.807Z,33.70
2022-08-26T10:34:42.280Z,33.40
2022-08-26T10:37:21.463Z,33.00
2022-08-26T10:39:58.635Z,32.40
2022-08-26T10:42:39.086Z,33.30
2022-08-26T10:45:17.116Z,33.50
2022-08-26T10:47:49.455Z,33.40
2022-08-26T10:50:18.092Z,32.80
2022-08-26T10:52:50.773Z,32.50
2022-08-26T10:55:34.910Z,32.10
2022-08-26T10:58:26.708Z,32.10
2022-08-26T11:01:43.216Z,31.60
2022-08-26T11:04:23.156Z,31.10
2022-08-26T11:07:32.603Z,30.80
2022-08-26T11:10:07.978Z,30.70
2022-08-26T11:12:34.445Z,30.60
2022-08-26T11:15:24.546Z,30.80
2022-08-26T11:17:51.543Z,30.90
2022-08-26T11:20:41.639Z,31.00
2022-08-26T11:23:21.214Z,31.10
2022-08-26T11:26:09.147Z,30.90
2022-08-26T11:28:48.218Z,31.10
2022-08-26T11:31:27.249Z,31.10
2022-08-26T11:33:59.450Z,31.10
2022-08-26T11:36:37.487Z,30.90
2022-08-26T11:39:21.220Z,30.90
2022-08-26T11:41:52.788Z,30.60
2022-08-26T11:44:25.019Z,30.60
2022-08-26T11:46:59.508Z,30.70
2022-08-26T11:49:28.214Z,30.80
2022-08-26T11:52:14.968Z,30.50
2022-08-26T11:54:59.220Z,30.20
2022-08-26T11:57:26.457Z,29.90
2022-08-26T11:59:53.221Z,28.60
2022-08-26T12:02:20.399Z,27.60
2022-08-26T12:04:48.975Z,27.00
2022-08-26T12:07:16.479Z,26.60
2022-08-26T12:10:06.901Z,26.30
2022-08-26T12:12:42.861Z,26.30
2022-08-26T12:15:19.115Z,26.50
2022-08-26T12:17:50.491Z,26.50
2022-08-26T12:20:48.578Z,26.50
2022-08-26T12:23:25.535Z,26.20
2022-08-26T12:25:54.830Z,26.20
2022-08-26T12:28:23.107Z,26.80
2022-08-26T12:31:05.385Z,27.30
2022-08-26T12:33:35.924Z,27.20
2022-08-26T12:36:07.409Z,26.80
2022-08-26T12:38:36.808Z,27.00
2022-08-26T12:41:03.576Z,26.70
2022-08-26T12:43:41.383Z,26.40
2022-08-26T12:46:13.339Z,26.40
2022-08-26T12:48:42.861Z,26.60
2022-08-26T12:51:23.781Z,27.00
2022-08-26T12:53:50.693Z,26.80
2022-08-26T12:56:19.534Z,26.60
2022-08-26T12:59:07.678Z,26.60
2022-08-26T13:01:40.947Z,25.70
2022-08-26T13:04:08.206Z,25.40
2022-08-26T13:06:35.175Z,25.90
2022-08-26T13:09:24.605Z,25.90
2022-08-26T13:11:53.115Z,25.60
2022-08-26T13:14:25.327Z,25.40
2022-08-26T13:16:52.815Z,24.90
2022-08-26T13:19:22.567Z,24.90
2022-08-26T13:21:55.373Z,24.60
2022-08-26T13:24:31.608Z,24.90
2022-08-26T13:26:58.706Z,25.00
2022-08-26T13:29:25.503Z,25.20
2022-08-26T13:31:52.825Z,25.20
2022-08-26T13:34:21.678Z,25.20
2022-08-26T13:36:50.923Z,25.10
2022-08-26T13:39:18.300Z,25.30
2022-08-26T13:41:45.060Z,25.30
2022-08-26T13:44:12.093Z,25.60
2022-08-26T13:46:39.342Z,25.10
2022-08-26T13:49:06.349Z,25.40
2022-08-26T13:51:33.517Z,25.00
2022-08-26T13:54:00.581Z,25.20
2022-08-26T13:56:29.544Z,25.10
2022-08-26T13:58:57.115Z,25.10
2022-08-26T14:01:24.405Z,25.20
2022-08-26T14:03:51.161Z,25.50
2022-08-26T14:06:18.085Z,25.40
2022-08-26T14:08:45.084Z,25.70
2022-08-26T14:11:12.079Z,25.60
2022-08-26T14:13:39.376Z,25.60
2022-08-26T14:16:09.743Z,25.80
2022-08-26T14:18:41.827Z,25.30
2022-08-26T14:21:14.350Z,24.30
2022-08-26T14:23:41.437Z,23.40
2022-08-26T14:26:10.843Z,22.80
2022-08-26T14:28:48.421Z,23.00
2022-08-26T14:31:15.856Z,23.10
2022-08-26T14:33:42.802Z,22.90
2022-08-26T14:36:31.508Z,22.80
2022-08-26T14:39:10.154Z,22.80
2022-08-26T14:41:45.570Z,23.20
2022-08-26T14:44:31.228Z,23.60
2022-08-26T14:47:03.025Z,23.70
2022-08-26T14:49:31.280Z,23.70
2022-08-26T14:51:58.249Z,24.20
2022-08-26T14:54:25.574Z,24.50
2022-08-26T14:56:53.995Z,24.50
2022-08-26T14:59:26.200Z,24.40
2022-08-26T15:01:53.676Z,24.40
2022-08-26T15:04:21.243Z,24.50
2022-08-26T15:06:48.176Z,24.50
2022-08-26T15:09:15.713Z,24.30
2022-08-26T15:11:42.545Z,24.40
2022-08-26T15:14:19.058Z,24.50
2022-08-26T15:16:51.979Z,24.40
2022-08-26T15:19:19.405Z,24.20
2022-08-26T15:21:47.076Z,24.10
2022-08-26T15:24:15.633Z,24.50
2022-08-26T15:26:42.776Z,25.00
2022-08-26T15:29:09.442Z,25.20
2022-08-26T15:31:36.636Z,24.60
2022-08-26T15:34:07.550Z,24.70
2022-08-26T15:36:35.351Z,25.00
2022-08-26T15:39:02.185Z,25.40
2022-08-26T15:41:29.399Z,25.60
2022-08-26T15:43:56.554Z,25.30
2022-08-26T15:46:23.414Z,25.20
2022-08-26T15:48:50.066Z,24.80
2022-08-26T15:51:25.561Z,25.10
2022-08-26T15:53:59.167Z,24.80
2022-08-26T15:56:27.415Z,24.90
2022-08-26T15:58:56.179Z,24.80
2022-08-26T16:01:27.174Z,25.10
2022-08-26T16:03:56.004Z,25.30
2022-08-26T16:06:27.388Z,25.30
2022-08-26T16:08:56.154Z,25.00
2022-08-26T16:11:22.709Z,24.70
2022-08-26T16:13:49.718Z,24.80
2022-08-26T16:16:16.564Z,24.70
2022-08-26T16:18:43.732Z,24.50
2022-08-26T16:21:15.971Z,24.30
2022-08-26T16:23:43.163Z,24.60
2022-08-26T16:26:17.700Z,24.90
2022-08-26T16:28:44.706Z,24.80
2022-08-26T16:31:12.178Z,24.90
2022-08-26T16:33:38.891Z,25.20
2022-08-26T16:36:06.630Z,25.20
2022-08-26T16:38:34.115Z,25.20
2022-08-26T16:41:01.371Z,25.20
2022-08-26T16:43:28.777Z,24.90
2022-08-26T16:45:56.109Z,25.20
2022-08-26T16:48:23.570Z,25.10
2022-08-26T16:50:51.320Z,24.50
2022-08-26T16:53:18.956Z,24.70
2022-08-26T16:55:47.348Z,25.20
2022-08-26T16:58:14.675Z,24.80
2022-08-26T17:00:41.352Z,25.00
2022-08-26T17:03:08.038Z,25.00
2022-08-26T17:05:36.253Z,25.00
2022-08-26T17:08:03.826Z,24.70
2022-08-26T17:10:31.082Z,24.50
2022-08-26T17:12:57.797Z,24.20
2022-08-26T17:15:25.269Z,24.70
2022-08-26T17:17:52.321Z,24.90
2022-08-26T17:20:20.119Z,24.80
2022-08-26T17:22:48.292Z,24.80
2022-08-26T17:25:23.276Z,25.20
2022-08-26T17:27:50.322Z,25.20
2022-08-26T17:30:17.699Z,25.10
2022-08-26T17:32:44.485Z,24.90
2022-08-26T17:35:12.954Z,24.80
2022-08-26T17:37:40.040Z,25.10
2022-08-26T17:40:09.732Z,25.10
2022-08-26T17:42:40.311Z,25.10
2022-08-26T17:45:08.360Z,25.10
2022-08-26T17:47:34.987Z,25.20
2022-08-26T17:50:01.953Z,25.10
2022-08-26T17:52:29.026Z,25.00
2022-08-26T17:54:56.335Z,25.10
2022-08-26T17:57:26.516Z,25.20
2022-08-26T17:59:53.826Z,25.00
2022-08-26T18:02:21.086Z,25.00
2022-08-26T18:04:47.816Z,25.10
2022-08-26T18:07:14.772Z,25.00
2022-08-26T18:09:41.381Z,24.90
2022-08-26T18:12:08.418Z,25.10
2022-08-26T18:14:35.276Z,25.00
2022-08-26T18:17:01.938Z,25.00
2022-08-26T18:19:29.798Z,25.00
2022-08-26T18:21:56.762Z,24.50
2022-08-26T18:24:23.405Z,24.10
2022-08-26T18:26:50.929Z,23.80
2022-08-26T18:29:19.299Z,23.90
2022-08-26T18:31:46.418Z,23.80
2022-08-26T18:34:15.321Z,24.10
2022-08-26T18:36:42.642Z,23.80
2022-08-26T18:39:10.448Z,23.90
2022-08-26T18:41:45.946Z,23.70
2022-08-26T18:44:14.025Z,23.60
2022-08-26T18:46:41.108Z,23.70
2022-08-26T18:49:08.406Z,23.50
2022-08-26T18:51:35.190Z,23.30
2022-08-26T18:54:05.232Z,23.40
2022-08-26T18:56:35.534Z,23.70
2022-08-26T18:59:03.024Z,23.60
2022-08-26T19:01:30.497Z,23.40
2022-08-26T19:03:58.017Z,23.60
2022-08-26T19:06:25.848Z,23.80
2022-08-26T19:08:53.064Z,24.00
2022-08-26T19:11:32.638Z,24.10
2022-08-26T19:14:06.538Z,24.10
2022-08-26T19:16:33.478Z,23.80
2022-08-26T19:19:01.741Z,24.00
2022-08-26T19:21:29.017Z,23.70
2022-08-26T19:23:57.885Z,23.60
2022-08-26T19:26:25.379Z,23.20
2022-08-26T19:28:52.782Z,23.50
2022-08-26T19:31:19.769Z,23.10
2022-08-26T19:33:46.361Z,23.10
2022-08-26T19:36:17.561Z,23.80
2022-08-26T19:38:45.575Z,24.10
2022-08-26T19:41:14.713Z,24.30
2022-08-26T19:43:41.788Z,24.40
2022-08-26T19:46:13.397Z,24.40
2022-08-26T19:48:43.904Z,24.40
2022-08-26T19:51:15.676Z,24.40
2022-08-26T19:53:46.892Z,24.40
2022-08-26T19:56:14.525Z,24.50
2022-08-26T19:58:41.476Z,24.30
2022-08-26T20:01:08.408Z,24.00
2022-08-26T20:03:36.029Z,24.10
2022-08-26T20:06:03.897Z,24.10
2022-08-26T20:08:30.736Z,24.30
2022-08-26T20:11:01.381Z,24.40
2022-08-26T20:13:28.287Z,24.20
2022-08-26T20:15:54.868Z,24.10
2022-08-26T20:18:40.097Z,23.90
2022-08-26T20:21:25.579Z,23.60
2022-08-26T20:24:08.315Z,24.10
2022-08-26T20:26:36.889Z,23.70
2022-08-26T20:29:05.616Z,22.90
2022-08-26T20:31:32.551Z,23.00
2022-08-26T20:33:59.217Z,23.50
2022-08-26T20:36:27.238Z,23.40
2022-08-26T20:38:54.837Z,23.60
2022-08-26T20:41:22.037Z,23.70
2022-08-26T20:43:48.728Z,24.00
2022-08-26T20:46:17.416Z,24.30
2022-08-26T20:48:45.749Z,24.20
2022-08-26T20:51:12.776Z,24.20
2022-08-26T20:53:39.684Z,24.40
2022-08-26T20:56:08.648Z,24.40
2022-08-26T20:58:36.062Z,24.00
2022-08-26T21:01:07.322Z,23.80
2022-08-26T21:03:35.756Z,24.00
2022-08-26T21:06:03.578Z,24.10
2022-08-26T21:08:30.351Z,23.60
2022-08-26T21:11:00.528Z,23.90
2022-08-26T21:13:27.126Z,24.30
2022-08-26T21:15:57.454Z,23.90
2022-08-26T21:18:24.189Z,23.80
2022-08-26T21:20:51.639Z,23.90
2022-08-26T21:23:18.773Z,24.10
2022-08-26T21:25:45.895Z,24.20
2022-08-26T21:28:12.544Z,24.30
2022-08-26T21:30:40.486Z,24.30
2022-08-26T21:33:07.481Z,24.30
2022-08-26T21:35:34.225Z,24.30
2022-08-26T21:38:00.790Z,24.20
2022-08-26T21:40:27.813Z,23.90
2022-08-26T21:42:54.438Z,23.60
2022-08-26T21:45:21.029Z,23.60
2022-08-26T21:47:47.575Z,24.00
2022-08-26T21:50:14.117Z,23.70
2022-08-26T21:52:40.706Z,23.90
2022-08-26T21:55:08.999Z,23.80
2022-08-26T21:57:38.113Z,23.70
2022-08-26T22:00:08.847Z,23.50
2022-08-26T22:02:36.917Z,23.60
2022-08-26T22:05:04.197Z,23.90
2022-08-26T22:07:30.840Z,24.10
2022-08-26T22:09:57.919Z,24.00
2022-08-26T22:12:24.572Z,23.60
2022-08-26T22:14:51.218Z,23.80
2022-08-26T22:17:17.827Z,23.50
2022-08-26T22:19:46.481Z,23.70
2022-08-26T22:22:14.474Z,23.80
2022-08-26T22:24:43.180Z,23.80
2022-08-26T22:27:14.352Z,24.00
2022-08-26T22:29:41.018Z,23.80
2022-08-26T22:32:08.081Z,23.30
2022-08-26T22:34:34.753Z,23.30
2022-08-26T22:37:03.138Z,23.70
2022-08-26T22:39:29.760Z,23.80
2022-08-26T22:41:57.152Z,23.70
2022-08-26T22:44:23.820Z,23.50
2022-08-26T22:46:52.331Z,23.20
2022-08-26T22:49:19.623Z,23.40
2022-08-26T22:51:46.836Z,23.70
2022-08-26T22:54:14.223Z,23.70
2022-08-26T22:56:40.828Z,23.70
2022-08-26T22:59:08.104Z,23.80
2022-08-26T23:01:42.019Z,23.40
2022-08-26T23:04:09.397Z,23.30
2022-08-26T23:06:37.682Z,23.30
2022-08-26T23:09:05.546Z,23.60
2022-08-26T23:11:32.501Z,23.60
2022-08-26T23:13:59.702Z,23.10
2022-08-26T23:16:29.006Z,23.30
2022-08-26T23:19:02.580Z,23.30
2022-08-26T23:21:29.130Z,23.10
2022-08-26T23:23:56.313Z,23.50
2022-08-26T23:26:22.851Z,23.50
2022-08-26T23:28:49.414Z,23.70
2022-08-26T23:31:16.145Z,23.60
2022-08-26T23:34:01.388Z,23.50
2022-08-26T23:36:29.920Z,23.60
2022-08-26T23:38:57.357Z,23.50
2022-08-26T23:41:24.400Z,23.60
2022-08-26T23:43:51.582Z,23.50
2022-08-26T23:46:19.022Z,23.60
2022-08-26T23:48:46.046Z,23.60
2022-08-26T23:51:30.907Z,23.40
2022-08-26T23:53:57.946Z,22.80
2022-08-26T23:56:24.917Z,23.20
2022-08-26T23:58:53.424Z,23.30
